Time;durP1;ratioP1;P1;durP2;ratioP2;P2;SDS_P1;SDS_P2;PMS_P1;PMS_P2;Temp;Humidity;BMP_temperature;BMP_pressure;BME280_temperature;BME280_humidity;BME280_pressure;Samples;Min_cycle;Max_cycle;Signal;HPM_P1;HPM_P2
2021/11/30 00:01:45;;;;;;;25.13;24.13;;;-0.90;99.90;;;;;;4193464;28;20025;-50
2021/11/30 00:03:47;;;;;;;22.55;21.48;;;-0.90;99.90;;;;;;4194448;28;20051;-51
2021/11/30 00:05:49;;;;;;;24.33;23.02;;;-0.90;99.90;;;;;;4194998;28;20422;-48
2021/11/30 00:07:56;;;;;;;23.45;22.52;;;-0.90;99.90;;;;;;4190188;28;20041;-50
2021/11/30 00:12:21;;;;;;;23.17;22.38;;;-0.90;99.90;;;;;;4193623;28;20066;-50
2021/11/30 00:14:23;;;;;;;19.67;19.08;;;-0.90;99.90;;;;;;4192672;28;20047;-48
2021/11/30 00:16:26;;;;;;;17.27;16.75;;;-0.90;99.90;;;;;;4187962;28;20500;-50
2021/11/30 00:18:33;;;;;;;20.70;19.85;;;-1.00;99.90;;;;;;4190292;28;20509;-50
2021/11/30 00:20:37;;;;;;;20.38;19.48;;;-0.90;99.90;;;;;;4193780;28;20090;-52
2021/11/30 00:22:39;;;;;;;19.52;18.83;;;-0.80;99.90;;;;;;4192459;28;20090;-52
2021/11/30 00:24:42;;;;;;;22.55;21.67;;;-0.80;99.90;;;;;;4188563;28;20083;-48
2021/11/30 00:26:47;;;;;;;26.00;24.67;;;-0.80;99.90;;;;;;4190731;28;20043;-50
2021/11/30 00:28:50;;;;;;;29.67;28.27;;;-0.80;99.90;;;;;;4194991;28;20377;-51
2021/11/30 00:30:52;;;;;;;27.10;25.90;;;-1.10;99.90;;;;;;4193180;28;20040;-52
2021/11/30 00:32:54;;;;;;;29.95;28.45;;;-1.10;99.90;;;;;;4195616;28;20851;-51
2021/11/30 00:34:56;;;;;;;31.73;30.02;;;-1.20;99.90;;;;;;4194479;28;20040;-51
2021/11/30 00:36:59;;;;;;;32.53;30.75;;;-1.40;99.90;;;;;;4192878;28;20040;-52
2021/11/30 00:39:01;;;;;;;;;;;-1.40;99.90;;;;;;4191982;28;20044;-50
2021/11/30 00:41:03;;;;;;;29.77;28.17;;;-1.30;99.90;;;;;;4194180;28;19927;-51
2021/11/30 00:43:06;;;;;;;30.92;29.25;;;-1.30;99.90;;;;;;4175962;28;20037;-50
2021/11/30 00:45:09;;;;;;;33.80;31.65;;;-1.30;99.90;;;;;;4194946;28;20490;-52
2021/11/30 00:47:18;;;;;;;34.92;32.88;;;-1.40;99.90;;;;;;4193147;28;20033;-52
2021/11/30 00:49:23;;;;;;;31.65;29.83;;;-1.40;99.90;;;;;;4192707;28;20040;-50
2021/11/30 00:51:25;;;;;;;34.30;32.30;;;-1.40;99.90;;;;;;4190744;28;20040;-52
2021/11/30 00:53:28;;;;;;;34.70;32.28;;;-1.50;99.90;;;;;;4194529;28;20045;-50
2021/11/30 00:55:31;;;;;;;31.50;30.05;;;-1.70;99.90;;;;;;4193107;28;20048;-51
2021/11/30 00:57:38;;;;;;;;;;;-1.90;99.90;;;;;;4193681;28;20045;-52
2021/11/30 00:59:40;;;;;;;28.23;26.90;;;-2.00;99.90;;;;;;4193525;28;19924;-52
2021/11/30 01:01:45;;;;;;;32.15;30.73;;;-2.00;99.90;;;;;;4186952;28;20072;-51
2021/11/30 01:03:47;;;;;;;30.88;29.70;;;-1.80;99.90;;;;;;4192644;28;20029;-52
2021/11/30 01:05:50;;;;;;;25.50;24.45;;;-1.60;99.90;;;;;;4190900;28;20494;-50
2021/11/30 01:07:52;;;;;;;29.50;28.30;;;-1.50;99.90;;;;;;4187797;28;20040;-49
2021/11/30 01:09:54;;;;;;;31.88;30.33;;;-1.50;99.90;;;;;;4194730;28;20845;-50
2021/11/30 01:11:56;;;;;;;37.20;34.65;;;-1.50;99.90;;;;;;4187814;28;20105;-52
2021/11/30 01:13:58;;;;;;;37.85;35.70;;;-1.70;99.90;;;;;;4185964;28;20051;-51
2021/11/30 01:16:02;;;;;;;35.42;33.75;;;-1.80;99.90;;;;;;4192352;28;20067;-52
2021/11/30 01:18:04;;;;;;;35.88;33.90;;;-2.00;99.90;;;;;;4192734;28;20048;-49
2021/11/30 01:20:08;;;;;;;33.38;31.90;;;-2.10;99.90;;;;;;4183304;28;20028;-52
2021/11/30 01:22:10;;;;;;;35.42;33.72;;;-2.10;99.90;;;;;;4192801;28;20040;-51
2021/11/30 01:24:12;;;;;;;31.90;30.27;;;-2.00;99.90;;;;;;4192077;28;20028;-52
2021/11/30 01:26:14;;;;;;;35.80;34.25;;;-2.00;99.90;;;;;;4194019;28;20028;-51
2021/11/30 01:28:16;;;;;;;36.58;34.88;;;-2.00;99.90;;;;;;4193371;28;20032;-50
2021/11/30 01:30:19;;;;;;;33.58;31.73;;;-2.00;99.90;;;;;;4192907;28;20032;-52
2021/11/30 01:32:21;;;;;;;38.40;36.25;;;-1.90;99.90;;;;;;4191154;28;20047;-52
2021/11/30 01:34:23;;;;;;;40.47;37.85;;;-1.90;99.90;;;;;;4190190;28;20029;-51
2021/11/30 01:36:25;;;;;;;41.72;38.63;;;-1.90;99.90;;;;;;4174045;28;20029;-49
2021/11/30 01:38:27;;;;;;;38.40;36.22;;;-2.00;99.90;;;;;;4189283;28;20385;-51
2021/11/30 01:40:31;;;;;;;37.42;35.42;;;-2.00;99.90;;;;;;4190650;28;20044;-52
2021/11/30 01:42:34;;;;;;;36.83;34.22;;;-1.80;99.90;;;;;;4173450;28;20049;-49
2021/11/30 01:47:11;;;;;;;33.13;31.27;;;-1.90;99.90;;;;;;4191028;28;20082;-49
2021/11/30 01:51:15;;;;;;;37.72;35.55;;;-1.70;99.90;;;;;;4191201;28;20037;-51
2021/11/30 01:53:17;;;;;;;36.70;34.55;;;-1.80;99.90;;;;;;4193139;28;20028;-50
2021/11/30 01:55:19;;;;;;;35.85;33.45;;;-1.90;99.90;;;;;;4192020;28;20036;-52
2021/11/30 01:57:24;;;;;;;37.45;35.53;;;-2.00;99.90;;;;;;4189413;28;20044;-50
2021/11/30 01:59:26;;;;;;;36.25;34.25;;;-1.80;99.90;;;;;;4190667;28;20037;-51
2021/11/30 02:01:28;;;;;;;33.25;31.75;;;-2.00;99.90;;;;;;4192777;28;20639;-52
2021/11/30 02:03:31;;;;;;;33.92;32.47;;;-2.00;99.90;;;;;;4189290;28;20106;-48
2021/11/30 02:05:35;;;;;;;30.85;29.75;;;-2.10;99.90;;;;;;4184697;28;20032;-51
2021/11/30 02:07:38;;;;;;;33.83;32.40;;;-1.90;99.90;;;;;;4190168;28;20040;-48
2021/11/30 02:09:43;;;;;;;31.60;30.20;;;-1.90;99.90;;;;;;4185773;28;20072;-51
2021/11/30 02:11:45;;;;;;;34.92;33.53;;;-2.00;99.90;;;;;;4188845;28;20064;-49
2021/11/30 02:13:54;;;;;;;32.10;30.63;;;-2.10;99.90;;;;;;4183622;28;20048;-52
2021/11/30 02:16:07;;;;;;;33.17;31.30;;;-2.20;99.90;;;;;;4156523;28;20056;-48
2021/11/30 02:18:13;;;;;;;33.80;32.10;;;-2.10;99.90;;;;;;4179306;28;20044;-52
2021/11/30 02:20:15;;;;;;;35.00;33.30;;;-2.20;99.90;;;;;;4191398;28;20040;-51
2021/11/30 02:22:18;;;;;;;35.58;33.92;;;-2.10;99.90;;;;;;4189548;28;20037;-52
2021/11/30 02:24:20;;;;;;;;;;;-2.20;99.90;;;;;;4193176;28;20109;-49
2021/11/30 02:26:22;;;;;;;34.30;33.10;;;-2.20;99.90;;;;;;4191442;28;19920;-52
2021/11/30 02:28:24;;;;;;;32.97;31.67;;;-2.20;99.90;;;;;;4193439;28;20032;-51
2021/11/30 02:30:26;;;;;;;36.40;34.65;;;-2.20;99.90;;;;;;4192640;28;20492;-50
2021/11/30 02:32:29;;;;;;;36.95;35.15;;;-2.30;99.90;;;;;;4191148;28;20131;-52
2021/11/30 02:34:31;;;;;;;34.15;33.10;;;-2.30;99.90;;;;;;4179374;28;20478;-50
2021/11/30 02:38:46;;;;;;;34.88;33.20;;;-2.40;99.90;;;;;;4192015;28;20037;-51
2021/11/30 02:40:49;;;;;;;36.60;34.92;;;-2.40;99.90;;;;;;4192048;28;20512;-50
2021/11/30 02:42:51;;;;;;;36.30;34.35;;;-2.30;99.90;;;;;;4174758;28;20040;-52
2021/11/30 02:44:53;;;;;;;36.45;34.78;;;-2.40;99.90;;;;;;4191705;28;20086;-51
2021/11/30 02:47:04;;;;;;;35.28;33.65;;;-2.50;99.90;;;;;;4177927;28;20044;-51
2021/11/30 02:49:10;;;;;;;36.65;34.95;;;-2.50;99.90;;;;;;4191872;28;20041;-48
2021/11/30 02:51:12;;;;;;;38.22;36.35;;;-2.40;99.90;;;;;;4193389;28;20389;-51
2021/11/30 02:53:20;;;;;;;37.42;35.63;;;-2.30;99.90;;;;;;4194062;28;20045;-48
2021/11/30 02:55:22;;;;;;;37.03;35.45;;;-2.40;99.90;;;;;;4194961;28;20037;-52
2021/11/30 02:57:25;;;;;;;36.85;35.35;;;-2.40;99.90;;;;;;4195020;28;20033;-48
2021/11/30 02:59:30;;;;;;;33.45;32.08;;;-2.50;99.90;;;;;;4190947;28;20045;-52
2021/11/30 03:01:33;;;;;;;36.42;34.92;;;-2.60;99.90;;;;;;4194964;28;20048;-52
2021/11/30 03:03:35;;;;;;;35.67;34.25;;;-2.70;99.90;;;;;;4190369;28;20040;-51
2021/11/30 03:05:37;;;;;;;38.03;36.33;;;-2.80;99.90;;;;;;4193399;28;20032;-50
2021/11/30 03:07:39;;;;;;;37.20;35.58;;;-2.80;99.90;;;;;;4196322;28;20048;-51
2021/11/30 03:09:42;;;;;;;36.50;34.97;;;-2.70;99.90;;;;;;4194653;28;20037;-51
2021/11/30 03:11:45;;;;;;;35.88;34.17;;;-2.70;99.90;;;;;;4196271;28;20706;-50
2021/11/30 03:13:47;;;;;;;;;;;-2.70;99.90;;;;;;4195576;28;20412;-51
2021/11/30 03:15:56;;;;;;;36.95;35.35;;;-2.80;99.90;;;;;;4188862;28;19963;-51
2021/11/30 03:17:59;;;;;;;35.88;34.38;;;-2.80;99.90;;;;;;4194230;28;20090;-51
2021/11/30 03:20:02;;;;;;;37.00;35.60;;;-2.80;99.90;;;;;;4193214;28;20102;-51
2021/11/30 03:22:05;;;;;;;36.50;35.20;;;-2.90;99.90;;;;;;4195575;28;20074;-52
2021/11/30 03:24:07;;;;;;;34.95;33.72;;;-2.70;99.90;;;;;;4195712;28;20550;-50
2021/11/30 03:26:10;;;;;;;33.35;32.13;;;-2.60;99.90;;;;;;4175334;28;20041;-52
2021/11/30 03:28:12;;;;;;;35.17;33.83;;;-2.60;99.90;;;;;;4183525;28;20570;-50
2021/11/30 03:30:16;;;;;;;34.03;32.95;;;-2.70;99.90;;;;;;4195475;28;20401;-51
2021/11/30 03:34:35;;;;;;;33.55;32.35;;;-2.60;99.90;;;;;;4195474;28;20400;-49
2021/11/30 03:36:39;;;;;;;35.40;34.25;;;-2.60;99.90;;;;;;4194997;28;20386;-52
2021/11/30 03:38:42;;;;;;;32.47;31.27;;;-2.60;99.90;;;;;;4193924;28;20051;-49
2021/11/30 03:40:44;;;;;;;32.85;31.45;;;-2.60;99.90;;;;;;4189880;28;20035;-52
2021/11/30 03:42:47;;;;;;;34.75;33.55;;;-2.60;99.90;;;;;;4193760;28;20025;-52
2021/11/30 03:44:49;;;;;;;33.97;32.22;;;-2.60;99.90;;;;;;4195574;28;20033;-50
2021/11/30 03:46:51;;;;;;;;;;;-2.50;99.90;;;;;;4195291;28;20041;-48
2021/11/30 03:48:54;;;;;;;38.90;37.00;;;-2.60;99.90;;;;;;4195021;28;19982;-51
2021/11/30 03:50:57;;;;;;;35.42;34.00;;;-2.80;99.90;;;;;;4192421;28;20553;-50
2021/11/30 03:52:59;;;;;;;38.30;36.67;;;-2.90;99.90;;;;;;4190509;28;20094;-52
2021/11/30 03:55:02;;;;;;;38.47;36.85;;;-2.80;99.90;;;;;;4191622;28;20061;-52
2021/11/30 03:57:24;;;;;;;38.47;36.85;;;-2.70;99.90;;;;;;4189879;28;20411;-49
2021/11/30 03:59:26;;;;;;;35.15;34.03;;;-2.60;99.90;;;;;;4193948;28;20035;-49
2021/11/30 04:01:28;;;;;;;35.13;33.90;;;-2.70;99.90;;;;;;4180070;28;20040;-49
2021/11/30 04:03:33;;;;;;;33.63;32.63;;;-2.70;99.90;;;;;;4192301;28;20041;-50
2021/11/30 04:05:36;;;;;;;35.00;33.42;;;-2.80;99.90;;;;;;4193553;28;20044;-50
2021/11/30 04:07:38;;;;;;;;;;;-2.80;99.90;;;;;;4193065;28;20032;-51
2021/11/30 04:09:41;;;;;;;35.20;34.00;;;-2.70;99.90;;;;;;4195850;28;19920;-52
2021/11/30 04:11:44;;;;;;;34.35;33.05;;;-2.60;99.90;;;;;;4194739;28;20518;-50
2021/11/30 04:13:46;;;;;;;;;;;-2.80;99.90;;;;;;4192973;28;20048;-50
2021/11/30 04:15:48;;;;;;;36.30;34.65;;;-2.90;99.90;;;;;;4192293;28;19924;-48
2021/11/30 04:17:50;;;;;;;40.13;38.10;;;-3.00;99.90;;;;;;4191845;28;20098;-52
2021/11/30 04:19:52;;;;;;;40.67;38.63;;;-3.00;99.90;;;;;;4191561;28;20040;-52
2021/11/30 04:21:57;;;;;;;42.45;40.28;;;-3.10;99.90;;;;;;4194956;28;20044;-49
2021/11/30 04:24:00;;;;;;;41.13;39.08;;;-3.10;99.90;;;;;;4191207;28;20043;-52
2021/11/30 04:26:02;;;;;;;42.03;40.10;;;-3.20;99.90;;;;;;4194222;28;20048;-51
2021/11/30 04:28:04;;;;;;;42.13;40.17;;;-3.30;99.90;;;;;;4193681;28;20040;-50
2021/11/30 04:30:07;;;;;;;40.92;38.72;;;-3.20;99.90;;;;;;4194060;28;20054;-52
2021/11/30 04:32:10;;;;;;;36.85;35.17;;;-3.30;99.90;;;;;;4190424;28;20045;-51
2021/11/30 04:34:12;;;;;;;;;;;-3.40;99.90;;;;;;4195085;28;20079;-49
2021/11/30 04:36:14;;;;;;;35.72;34.10;;;-3.40;99.90;;;;;;4192318;28;19974;-51
2021/11/30 04:38:16;;;;;;;41.20;39.38;;;-3.50;99.90;;;;;;4193744;28;20111;-51
2021/11/30 04:40:19;;;;;;;37.53;35.97;;;-3.50;99.90;;;;;;4193043;28;20037;-50
2021/11/30 04:42:25;;;;;;;42.00;40.03;;;-3.40;99.90;;;;;;4192341;28;20062;-51
2021/11/30 04:44:30;;;;;;;43.92;41.58;;;-3.40;99.90;;;;;;4194456;28;20483;-47
2021/11/30 04:46:42;;;;;;;39.88;38.20;;;-3.40;99.90;;;;;;4193724;28;20553;-48
2021/11/30 04:48:54;;;;;;;41.08;39.28;;;-3.40;99.90;;;;;;4182660;28;20040;-52
2021/11/30 04:50:58;;;;;;;40.38;38.17;;;-3.50;99.90;;;;;;4176478;28;20041;-51
2021/11/30 04:53:01;;;;;;;41.67;39.60;;;-3.50;99.90;;;;;;4175914;28;20425;-52
2021/11/30 04:55:03;;;;;;;42.95;40.20;;;-3.40;99.90;;;;;;4178338;28;20414;-51
2021/11/30 04:57:06;;;;;;;41.33;39.15;;;-3.30;99.90;;;;;;4177219;28;20044;-49
2021/11/30 04:59:08;;;;;;;38.83;37.17;;;-3.30;99.90;;;;;;4160905;28;20048;-51
2021/11/30 05:01:10;;;;;;;41.78;40.08;;;-3.20;99.90;;;;;;4174690;28;20051;-51
2021/11/30 05:03:19;;;;;;;37.78;36.28;;;-3.30;99.90;;;;;;4171866;28;20632;-51
2021/11/30 05:05:21;;;;;;;37.83;36.08;;;-3.50;99.90;;;;;;4172574;28;20381;-49
2021/11/30 05:07:23;;;;;;;37.25;35.85;;;-3.50;99.90;;;;;;4176420;28;20037;-51
2021/11/30 05:09:25;;;;;;;38.65;36.88;;;-3.40;99.90;;;;;;4175606;28;20037;-49
2021/11/30 05:11:28;;;;;;;37.35;35.72;;;-3.40;99.90;;;;;;4175897;28;20106;-51
2021/11/30 05:13:31;;;;;;;38.42;36.72;;;-3.50;99.90;;;;;;4172859;28;20048;-51
2021/11/30 05:15:33;;;;;;;39.00;37.10;;;-3.60;99.90;;;;;;4153284;28;20045;-49
2021/11/30 05:17:35;;;;;;;38.83;37.17;;;-3.60;99.90;;;;;;4175462;28;20048;-49
2021/11/30 05:19:37;;;;;;;40.42;38.63;;;-3.50;99.90;;;;;;4174617;28;20055;-51
2021/11/30 05:21:39;;;;;;;39.63;37.65;;;-3.60;99.90;;;;;;4156694;28;20509;-52
2021/11/30 05:23:41;;;;;;;40.88;38.88;;;-3.70;99.90;;;;;;4177212;28;20048;-50
2021/11/30 05:25:44;;;;;;;40.15;38.35;;;-3.70;99.90;;;;;;4176291;28;20022;-48
2021/11/30 05:27:48;;;;;;;44.25;42.28;;;-3.60;99.90;;;;;;4171137;28;20456;-50
2021/11/30 05:29:50;;;;;;;39.53;37.38;;;-3.70;99.90;;;;;;4166676;28;20040;-48
2021/11/30 05:31:53;;;;;;;37.28;35.20;;;-3.70;99.90;;;;;;4175600;28;20594;-50
2021/11/30 05:33:56;;;;;;;38.45;36.63;;;-3.60;99.90;;;;;;4176651;28;20409;-51
2021/11/30 05:35:58;;;;;;;44.10;42.00;;;-3.60;99.90;;;;;;4177683;28;20087;-49
2021/11/30 05:38:01;;;;;;;36.28;34.78;;;-3.60;99.90;;;;;;4175081;28;20033;-51
2021/11/30 05:40:04;;;;;;;39.15;37.60;;;-3.60;99.90;;;;;;4176137;28;20055;-52
2021/11/30 05:42:07;;;;;;;37.15;35.58;;;-3.60;99.90;;;;;;4176274;28;20095;-51
2021/11/30 05:44:09;;;;;;;40.17;38.42;;;-3.70;99.90;;;;;;4176621;28;20029;-50
2021/11/30 05:46:12;;;;;;;39.05;36.97;;;-3.70;99.90;;;;;;4175475;28;20038;-52
2021/11/30 05:48:14;;;;;;;39.65;37.75;;;-3.70;99.90;;;;;;4179208;28;20040;-49
2021/11/30 05:50:17;;;;;;;;;;;-3.70;99.90;;;;;;4193459;28;20642;-51
2021/11/30 05:52:20;;;;;;;40.63;38.87;;;-3.80;99.90;;;;;;4191503;28;20351;-49
2021/11/30 05:54:22;;;;;;;43.95;42.00;;;-3.90;99.90;;;;;;4193466;28;20049;-49
2021/11/30 05:56:40;;;;;;;47.20;44.47;;;-3.80;99.90;;;;;;4191663;28;20438;-50
2021/11/30 05:58:44;;;;;;;44.55;42.05;;;-4.00;99.90;;;;;;4193273;28;21029;-51
2021/11/30 06:00:48;;;;;;;38.30;36.60;;;-4.10;99.90;;;;;;4187727;28;20527;-52
2021/11/30 06:05:02;;;;;;;37.50;35.80;;;-3.90;99.90;;;;;;4189362;28;20043;-49
2021/11/30 06:07:04;;;;;;;36.80;35.35;;;-3.80;99.90;;;;;;4180455;28;20086;-49
2021/11/30 06:09:08;;;;;;;;;;;-3.90;99.90;;;;;;4191830;28;20063;-50
2021/11/30 06:11:10;;;;;;;37.38;36.08;;;-3.90;99.90;;;;;;4192920;28;20627;-48
2021/11/30 06:13:12;;;;;;;37.28;35.78;;;-3.90;99.90;;;;;;4190974;28;20040;-51
2021/11/30 06:15:15;;;;;;;35.28;33.97;;;-3.90;99.90;;;;;;4191568;28;20036;-51
2021/11/30 06:17:17;;;;;;;36.78;35.38;;;-3.70;99.90;;;;;;4192676;28;20396;-48
2021/11/30 06:19:20;;;;;;;34.65;33.60;;;-3.70;99.90;;;;;;4192420;28;20036;-51
2021/11/30 06:21:23;;;;;;;38.05;36.75;;;-3.70;99.90;;;;;;4191253;28;20037;-49
2021/11/30 06:23:26;;;;;;;38.35;35.92;;;-3.70;99.90;;;;;;4182207;28;20090;-51
2021/11/30 06:25:28;;;;;;;39.15;37.38;;;-3.70;99.90;;;;;;4194715;28;20086;-50
2021/11/30 06:27:30;;;;;;;41.30;38.72;;;-3.90;99.90;;;;;;4195916;28;20044;-52
2021/11/30 06:29:32;;;;;;;41.13;39.08;;;-4.10;99.90;;;;;;4193350;28;20128;-52
2021/11/30 06:31:34;;;;;;;41.90;39.53;;;-4.20;99.90;;;;;;4192604;28;20404;-52
2021/11/30 06:33:37;;;;;;;39.72;37.88;;;-4.20;99.90;;;;;;4176164;28;20320;-52
2021/11/30 06:35:39;;;;;;;41.25;39.55;;;-4.20;99.90;;;;;;4196849;28;20044;-52
2021/11/30 06:37:41;;;;;;;39.95;38.05;;;-4.30;99.90;;;;;;4194129;28;20040;-53
2021/11/30 06:39:43;;;;;;;39.45;37.40;;;-4.30;99.90;;;;;;4183258;28;20053;-52
2021/11/30 06:41:45;;;;;;;36.97;35.30;;;-4.30;99.90;;;;;;4193110;28;20067;-52
2021/11/30 06:43:47;;;;;;;38.33;36.78;;;-4.30;99.90;;;;;;4196073;28;20102;-52
2021/11/30 06:45:50;;;;;;;39.50;37.67;;;-4.20;99.90;;;;;;4195806;28;20032;-52
2021/11/30 06:47:52;;;;;;;40.35;38.45;;;-4.10;99.90;;;;;;4195346;28;20412;-52
2021/11/30 06:49:54;;;;;;;40.63;38.92;;;-4.00;99.90;;;;;;4184496;28;20082;-52
2021/11/30 06:51:56;;;;;;;;;;;-4.10;99.90;;;;;;4179176;28;20041;-52
2021/11/30 06:53:58;;;;;;;36.47;34.88;;;-4.10;99.90;;;;;;4178956;28;19936;-52
2021/11/30 06:56:01;;;;;;;42.55;40.65;;;-4.10;99.90;;;;;;4180886;28;20043;-52
2021/11/30 06:58:03;;;;;;;42.30;40.35;;;-4.20;99.90;;;;;;4178968;28;20484;-52
2021/11/30 07:00:08;;;;;;;41.70;39.85;;;-4.10;99.90;;;;;;4179371;28;20099;-52
2021/11/30 07:02:12;;;;;;;40.17;38.42;;;-4.10;99.90;;;;;;4179059;28;20088;-51
2021/11/30 07:04:15;;;;;;;42.35;40.63;;;-4.10;99.90;;;;;;4178117;28;20037;-52
2021/11/30 07:06:24;;;;;;;42.85;40.80;;;-4.10;99.90;;;;;;4178097;28;20546;-53
2021/11/30 07:10:51;;;;;;;37.22;35.58;;;-4.00;99.90;;;;;;4179418;28;20037;-52
2021/11/30 07:15:06;;;;;;;42.58;40.53;;;-3.90;99.90;;;;;;4176388;28;20175;-53
2021/11/30 07:17:08;;;;;;;38.20;36.25;;;-3.90;99.90;;;;;;4180676;28;20049;-50
2021/11/30 07:19:10;;;;;;;37.58;35.83;;;-3.90;99.90;;;;;;4177309;28;20036;-52
2021/11/30 07:21:12;;;;;;;40.95;38.97;;;-3.90;99.90;;;;;;4179032;28;20040;-52
2021/11/30 07:23:15;;;;;;;38.70;37.15;;;-3.90;99.90;;;;;;4179537;28;20111;-51
2021/11/30 07:25:17;;;;;;;;;;;-3.80;99.90;;;;;;4180648;28;20489;-51
2021/11/30 07:27:19;;;;;;;43.53;41.13;;;-3.80;99.90;;;;;;4164017;28;19924;-52
2021/11/30 07:29:21;;;;;;;45.65;43.25;;;-3.90;99.90;;;;;;4179177;28;20037;-51
2021/11/30 07:31:24;;;;;;;59.00;53.60;;;-3.90;99.90;;;;;;4179184;28;20431;-52
2021/11/30 07:33:26;;;;;;;50.50;46.65;;;-3.90;99.90;;;;;;4178421;28;20045;-51
2021/11/30 07:35:32;;;;;;;43.55;41.38;;;-3.90;99.90;;;;;;4179278;28;20516;-49
2021/11/30 07:37:34;;;;;;;47.25;43.88;;;-3.80;99.90;;;;;;4185846;28;20045;-49
2021/11/30 07:39:36;;;;;;;47.58;44.65;;;-3.80;99.90;;;;;;4177040;28;20045;-51
2021/11/30 07:41:38;;;;;;;46.45;43.17;;;-3.70;99.90;;;;;;4191149;28;20520;-52
2021/11/30 07:43:41;;;;;;;42.35;39.55;;;-3.70;99.90;;;;;;4179652;28;20041;-53
2021/11/30 07:45:44;;;;;;;43.30;40.70;;;-3.70;99.90;;;;;;4180485;28;20041;-53
2021/11/30 07:47:46;;;;;;;37.60;35.42;;;-3.70;99.90;;;;;;4180114;28;20025;-53
2021/11/30 07:49:48;;;;;;;44.47;41.00;;;-3.50;99.90;;;;;;4193128;28;20446;-52
2021/11/30 07:51:50;;;;;;;42.72;39.70;;;-3.50;99.90;;;;;;4188293;28;20090;-52
2021/11/30 07:53:52;;;;;;;41.78;39.35;;;-3.50;99.90;;;;;;4194954;28;20074;-53
2021/11/30 07:55:55;;;;;;;38.63;36.67;;;-3.50;99.90;;;;;;4194721;28;20036;-53
2021/11/30 07:57:57;;;;;;;30.48;29.42;;;-3.30;99.90;;;;;;4193869;28;20063;-52
2021/11/30 08:00:00;;;;;;;26.33;25.63;;;-3.20;99.90;;;;;;4194341;28;20041;-52
2021/11/30 08:02:02;;;;;;;29.75;28.70;;;-3.20;99.90;;;;;;4193174;28;20067;-52
2021/11/30 08:04:05;;;;;;;33.03;31.42;;;-3.20;99.90;;;;;;4191816;28;20041;-52
2021/11/30 08:06:07;;;;;;;28.38;27.38;;;-2.80;99.90;;;;;;4194951;28;20056;-53
2021/11/30 08:08:09;;;;;;;25.40;24.30;;;-2.70;99.90;;;;;;4187373;28;20043;-53
2021/11/30 08:10:15;;;;;;;22.50;21.85;;;-2.70;99.90;;;;;;4194820;28;20033;-52
2021/11/30 08:12:17;;;;;;;27.52;26.42;;;-2.70;99.90;;;;;;4167999;28;20037;-52
2021/11/30 08:14:19;;;;;;;23.15;21.77;;;-2.60;99.90;;;;;;4193096;28;20055;-52
2021/11/30 08:16:21;;;;;;;21.70;20.33;;;-2.40;99.90;;;;;;4194569;28;20033;-53
2021/11/30 08:18:24;;;;;;;21.42;20.42;;;-2.30;99.90;;;;;;4191269;28;20399;-53
2021/11/30 08:20:26;;;;;;;22.45;21.55;;;-2.20;99.90;;;;;;4194292;28;20532;-52
2021/11/30 08:22:28;;;;;;;28.33;27.25;;;-2.20;99.90;;;;;;4194294;28;20040;-53
2021/11/30 08:24:30;;;;;;;26.90;25.92;;;-2.30;99.90;;;;;;4194113;28;20052;-51
2021/11/30 08:26:33;;;;;;;26.48;25.40;;;-2.20;99.90;;;;;;4193080;28;20067;-52
2021/11/30 08:28:36;;;;;;;31.30;29.88;;;-2.20;99.90;;;;;;4194278;28;20611;-52
2021/11/30 08:30:39;;;;;;;25.10;24.10;;;-2.20;99.90;;;;;;4194345;28;20094;-53
2021/11/30 08:32:41;;;;;;;26.58;24.20;;;-2.10;99.90;;;;;;4194364;28;20071;-52
2021/11/30 08:34:43;;;;;;;33.13;30.98;;;-2.00;99.90;;;;;;4192944;28;20037;-53
2021/11/30 08:36:45;;;;;;;27.30;25.60;;;-2.00;99.90;;;;;;4194529;28;20036;-52
2021/11/30 08:38:48;;;;;;;12.75;12.30;;;-1.90;99.90;;;;;;4193707;28;20040;-53
2021/11/30 08:40:55;;;;;;;16.83;16.23;;;-1.90;99.90;;;;;;4194477;28;20063;-52
2021/11/30 08:42:57;;;;;;;14.90;13.93;;;-1.80;99.90;;;;;;4189189;28;20044;-52
2021/11/30 08:44:59;;;;;;;17.02;15.80;;;-1.80;99.90;;;;;;4184198;28;20412;-52
2021/11/30 08:47:06;;;;;;;23.15;20.88;;;-1.70;99.90;;;;;;4192863;28;20028;-53
2021/11/30 08:49:09;;;;;;;17.70;17.08;;;-1.70;99.90;;;;;;4194115;28;20102;-53
2021/11/30 08:51:11;;;;;;;29.38;28.05;;;-1.70;99.90;;;;;;4192467;28;20066;-52
2021/11/30 08:53:13;;;;;;;31.80;30.13;;;-1.70;99.90;;;;;;4194120;28;20094;-52
2021/11/30 08:55:16;;;;;;;34.80;32.25;;;-1.60;99.90;;;;;;4174109;28;20052;-52
2021/11/30 08:57:19;;;;;;;33.33;31.48;;;-1.60;99.90;;;;;;4181968;28;20048;-54
2021/11/30 08:59:21;;;;;;;26.90;25.48;;;-1.50;99.90;;;;;;4191524;28;20037;-52
2021/11/30 09:01:23;;;;;;;17.50;16.77;;;-1.50;99.90;;;;;;4194109;28;20041;-53
2021/11/30 09:03:25;;;;;;;19.85;17.80;;;-1.40;99.90;;;;;;4191853;28;20417;-52
2021/11/30 09:05:27;;;;;;;17.25;15.80;;;-1.30;99.90;;;;;;4194619;28;20059;-53
2021/11/30 09:07:30;;;;;;;18.98;17.25;;;-1.10;99.90;;;;;;4190989;28;20044;-52
2021/11/30 09:09:32;;;;;;;26.80;21.40;;;-1.00;99.90;;;;;;4194514;28;20040;-51
2021/11/30 09:11:39;;;;;;;28.40;21.17;;;-0.90;99.90;;;;;;4191937;28;20036;-53
2021/11/30 09:13:41;;;;;;;50.22;31.67;;;-0.90;99.90;;;;;;4193967;28;20617;-53
2021/11/30 09:15:44;;;;;;;32.90;25.95;;;-0.80;99.90;;;;;;4192243;28;20091;-53
2021/11/30 09:17:46;;;;;;;;;;;-0.70;99.90;;;;;;4176937;28;20056;-52
2021/11/30 09:19:49;;;;;;;25.63;22.97;;;-0.60;99.90;;;;;;4191522;28;19928;-52
2021/11/30 09:21:51;;;;;;;;;;;-0.60;99.90;;;;;;4194566;28;20291;-54
2021/11/30 09:23:57;;;;;;;17.90;16.73;;;-0.60;99.90;;;;;;4192618;28;19931;-52
2021/11/30 09:26:00;;;;;;;16.92;15.73;;;-0.60;99.90;;;;;;4193023;28;20415;-52
2021/11/30 09:28:03;;;;;;;10.65;10.32;;;-0.50;99.90;;;;;;4193712;28;20094;-51
2021/11/30 09:30:08;;;;;;;9.45;9.25;;;-0.10;99.90;;;;;;4190260;28;20044;-52
2021/11/30 09:32:11;;;;;;;7.75;7.45;;;0.00;99.90;;;;;;4192687;28;20041;-52
2021/11/30 09:34:33;;;;;;;8.25;8.05;;;0.30;99.90;;;;;;4194094;28;20106;-53
2021/11/30 09:36:35;;;;;;;11.30;10.60;;;0.30;99.90;;;;;;4192469;28;20048;-51
2021/11/30 09:38:38;;;;;;;;;;;0.80;99.90;;;;;;4194386;28;20078;-52
2021/11/30 09:40:41;;;;;;;14.48;13.63;;;1.10;99.90;;;;;;4192780;28;19924;-54
2021/11/30 09:43:01;;;;;;;13.25;12.40;;;0.90;99.90;;;;;;4172523;28;20037;-53
2021/11/30 09:45:10;;;;;;;12.40;11.45;;;0.80;99.90;;;;;;4190485;28;20033;-54
2021/11/30 09:47:14;;;;;;;15.70;14.15;;;1.10;99.90;;;;;;4193336;28;20442;-53
2021/11/30 09:49:18;;;;;;;20.35;18.25;;;1.10;99.90;;;;;;4192677;28;20124;-53
2021/11/30 09:51:21;;;;;;;9.73;9.43;;;1.00;99.90;;;;;;4193425;28;20040;-54
2021/11/30 09:53:24;;;;;;;8.73;8.52;;;1.00;99.90;;;;;;4192644;28;20411;-54
2021/11/30 09:55:26;;;;;;;9.55;8.98;;;1.00;99.90;;;;;;4193664;28;20510;-53
2021/11/30 09:57:29;;;;;;;10.38;9.93;;;1.10;99.90;;;;;;4190071;28;20040;-54
2021/11/30 09:59:31;;;;;;;14.60;13.80;;;1.20;99.90;;;;;;4177046;28;20071;-52
2021/11/30 10:01:33;;;;;;;10.55;10.05;;;1.30;99.90;;;;;;4191117;28;20037;-54
2021/11/30 10:03:37;;;;;;;9.32;9.05;;;1.40;99.90;;;;;;4193069;28;20089;-53
2021/11/30 10:05:41;;;;;;;10.70;10.23;;;1.50;99.90;;;;;;4192247;28;20090;-53
2021/11/30 10:07:46;;;;;;;8.95;8.65;;;1.60;99.90;;;;;;4191761;28;20044;-52
2021/11/30 10:09:48;;;;;;;12.27;11.57;;;1.70;99.90;;;;;;4192257;28;20521;-54
2021/11/30 10:12:06;;;;;;;26.92;21.98;;;1.80;99.90;;;;;;4193479;28;20044;-54
2021/11/30 10:14:14;;;;;;;13.35;12.35;;;2.30;99.90;;;;;;4173497;28;20040;-54
2021/11/30 10:16:17;;;;;;;17.92;16.50;;;2.60;99.90;;;;;;4177013;28;20405;-54
2021/11/30 10:18:27;;;;;;;14.82;13.82;;;2.70;99.90;;;;;;4190413;28;20094;-54
2021/11/30 10:20:29;;;;;;;11.93;11.02;;;3.20;99.90;;;;;;4190459;28;20055;-54
2021/11/30 10:22:35;;;;;;;8.65;8.00;;;3.50;99.90;;;;;;4193551;28;20051;-53
2021/11/30 10:24:38;;;;;;;7.43;7.00;;;3.40;99.90;;;;;;4193285;28;20387;-52
2021/11/30 10:26:45;;;;;;;10.27;9.65;;;3.50;99.90;;;;;;4190515;28;20025;-53
2021/11/30 10:28:52;;;;;;;9.38;8.80;;;3.30;99.90;;;;;;4177283;28;20393;-53
2021/11/30 10:30:54;;;;;;;10.05;9.27;;;3.10;99.90;;;;;;4192484;28;20037;-53
2021/11/30 10:33:03;;;;;;;8.95;8.55;;;3.10;99.90;;;;;;4182776;28;20557;-53
2021/11/30 10:35:05;;;;;;;8.50;7.93;;;3.30;99.90;;;;;;4192913;28;20408;-54
2021/11/30 10:37:10;;;;;;;10.45;9.85;;;3.40;99.90;;;;;;4193245;28;20041;-53
2021/11/30 10:39:23;;;;;;;9.40;9.10;;;3.40;99.90;;;;;;4191294;28;20029;-53
2021/11/30 10:41:27;;;;;;;9.32;8.73;;;3.60;99.90;;;;;;4193271;28;20041;-54
2021/11/30 10:43:29;;;;;;;9.77;8.25;;;3.90;99.90;;;;;;4192073;28;20082;-54
2021/11/30 10:45:35;;;;;;;8.20;7.85;;;4.10;99.90;;;;;;4192880;28;20447;-53
2021/11/30 10:47:41;;;;;;;6.57;6.38;;;4.50;99.90;;;;;;4193165;28;20567;-53
2021/11/30 10:49:58;;;;;;;5.80;5.63;;;4.70;99.90;;;;;;4169842;28;20493;-54